Time,TemperatureF,DewpointF,PressureIn,WindDirection,WindDirectionDegrees,WindSpeedMPH,WindSpeedGustMPH,Humidity,HourlyPrecipIn,Conditions,Clouds,dailyrainin,SolarRadiationWatts/m^2,SoftwareType,DateUTC
2013-02-02 00:01:00,52.0,27.0,-100.00,ENE,69,5.0,16.0,38,0.00,,,0.00,0.000000,,2013-02-02 10:01:00,
2013-02-02 00:11:00,52.0,27.0,-100.00,ENE,69,5.0,16.0,38,0.00,,,0.00,0.000000,,2013-02-02 10:11:00,
2013-02-02 00:21:00,52.0,27.0,-100.00,ENE,69,5.0,16.0,38,0.00,,,0.00,0.000000,,2013-02-02 10:21:00,
2013-02-02 00:31:00,52.0,27.0,-100.00,ENE,69,5.0,16.0,38,0.00,,,0.00,0.000000,,2013-02-02 10:31:00,
2013-02-02 00:52:00,54.0,39.0,-100.00,NE,46,8.0,23.0,56,0.00,,,0.00,0.000000,,2013-02-02 10:52:00,
2013-02-02 01:01:00,54.0,39.0,-100.00,NE,46,8.0,23.0,56,0.00,,,0.00,0.000000,,2013-02-02 11:01:00,
2013-02-02 01:11:00,54.0,39.0,-100.00,NE,46,8.0,23.0,56,0.00,,,0.00,0.000000,,2013-02-02 11:11:00,
2013-02-02 01:21:00,54.0,39.0,-100.00,NE,46,8.0,23.0,56,0.00,,,0.00,0.000000,,2013-02-02 11:21:00,
2013-02-02 01:31:00,54.0,39.0,-100.00,NE,46,8.0,23.0,56,0.00,,,0.00,0.000000,,2013-02-02 11:31:00,
2013-02-02 01:52:00,53.0,29.0,-100.00,ENE,73,10.0,26.0,40,0.00,,,0.00,0.000000,,2013-02-02 11:52:00,
2013-02-02 02:01:00,53.0,29.0,-100.00,ENE,73,10.0,26.0,40,0.00,,,0.00,0.000000,,2013-02-02 12:01:00,
2013-02-02 02:11:00,53.0,29.0,-100.00,ENE,73,10.0,26.0,40,0.00,,,0.00,0.000000,,2013-02-02 12:11:00,
2013-02-02 02:22:00,53.0,29.0,-100.00,ENE,73,10.0,26.0,40,0.00,,,0.00,0.000000,,2013-02-02 12:22:00,
2013-02-02 02:32:00,53.0,29.0,-100.00,ENE,73,10.0,26.0,40,0.00,,,0.00,0.000000,,2013-02-02 12:32:00,
2013-02-02 02:52:00,53.0,25.0,-100.00,ENE,69,14.0,21.0,33,0.00,,,0.00,0.000000,,2013-02-02 12:52:00,
2013-02-02 03:02:00,53.0,25.0,-100.00,ENE,69,14.0,21.0,33,0.00,,,0.00,0.000000,,2013-02-02 13:02:00,
2013-02-02 03:11:00,53.0,25.0,-100.00,ENE,69,14.0,21.0,33,0.00,,,0.00,0.000000,,2013-02-02 13:11:00,
2013-02-02 03:21:00,53.0,25.0,-100.00,ENE,69,14.0,21.0,33,0.00,,,0.00,0.000000,,2013-02-02 13:21:00,
2013-02-02 03:32:00,53.0,25.0,-100.00,ENE,69,14.0,21.0,33,0.00,,,0.00,0.000000,,2013-02-02 13:32:00,
2013-02-02 03:52:00,56.0,36.0,-100.00,NE,40,10.0,31.0,46,0.00,,,0.00,0.000000,,2013-02-02 13:52:00,
2013-02-02 04:02:00,56.0,36.0,-100.00,NE,40,10.0,31.0,46,0.00,,,0.00,0.000000,,2013-02-02 14:02:00,
2013-02-02 04:11:00,56.0,36.0,-100.00,NE,40,10.0,31.0,46,0.00,,,0.00,0.000000,,2013-02-02 14:11:00,
2013-02-02 04:22:00,56.0,36.0,-100.00,NE,40,10.0,31.0,46,0.00,,,0.00,0.000000,,2013-02-02 14:22:00,
2013-02-02 04:32:00,56.0,36.0,-100.00,NE,40,10.0,31.0,46,0.00,,,0.00,0.000000,,2013-02-02 14:32:00,
2013-02-02 04:52:00,53.0,30.0,-100.00,NE,37,8.0,29.0,41,0.00,,,0.00,0.000000,,2013-02-02 14:52:00,
2013-02-02 05:03:00,53.0,30.0,-100.00,NE,37,8.0,29.0,41,0.00,,,0.00,0.000000,,2013-02-02 15:03:00,
2013-02-02 05:12:00,53.0,30.0,-100.00,NE,37,8.0,29.0,41,0.00,,,0.00,0.000000,,2013-02-02 15:12:00,
2013-02-02 05:21:00,53.0,30.0,-100.00,NE,37,8.0,29.0,41,0.00,,,0.00,0.000000,,2013-02-02 15:21:00,
2013-02-02 05:32:00,53.0,30.0,-100.00,NE,37,8.0,29.0,41,0.00,,,0.00,0.000000,,2013-02-02 15:32:00,
2013-02-02 05:52:00,52.0,32.0,-100.00,ENE,71,6.0,20.0,47,0.00,,,0.00,0.000000,,2013-02-02 15:52:00,
2013-02-02 06:02:00,52.0,32.0,-100.00,ENE,71,6.0,20.0,47,0.00,,,0.00,0.000000,,2013-02-02 16:02:00,
2013-02-02 06:11:00,52.0,32.0,-100.00,ENE,71,6.0,20.0,47,0.00,,,0.00,0.000000,,2013-02-02 16:11:00,
2013-02-02 06:22:00,52.0,32.0,-100.00,ENE,71,6.0,20.0,47,0.00,,,0.00,0.000000,,2013-02-02 16:22:00,
2013-02-02 06:31:00,52.0,32.0,-100.00,ENE,71,6.0,20.0,47,0.00,,,0.00,0.000000,,2013-02-02 16:31:00,
2013-02-02 06:52:00,50.0,33.0,-100.00,North,6,1.0,15.0,52,0.00,,,0.00,0.000000,,2013-02-02 16:52:00,
2013-02-02 07:02:00,50.0,33.0,-100.00,North,6,1.0,15.0,52,0.00,,,0.00,0.000000,,2013-02-02 17:02:00,
2013-02-02 07:11:00,50.0,33.0,-100.00,North,6,1.0,15.0,52,0.00,,,0.00,0.000000,,2013-02-02 17:11:00,
2013-02-02 07:22:00,50.0,33.0,-100.00,North,6,1.0,15.0,52,0.00,,,0.00,0.000000,,2013-02-02 17:22:00,
2013-02-02 07:31:00,50.0,33.0,-100.00,North,6,1.0,15.0,52,0.00,,,0.00,0.000000,,2013-02-02 17:31:00,
2013-02-02 07:52:00,51.0,35.0,-100.00,WSW,256,3.0,12.0,54,0.00,,,0.00,1.000000,,2013-02-02 17:52:00,
2013-02-02 08:02:00,51.0,35.0,-100.00,WSW,256,3.0,12.0,54,0.00,,,0.00,1.000000,,2013-02-02 18:02:00,
2013-02-02 08:12:00,51.0,35.0,-100.00,WSW,256,3.0,12.0,54,0.00,,,0.00,1.000000,,2013-02-02 18:12:00,
2013-02-02 08:21:00,51.0,35.0,-100.00,WSW,256,3.0,12.0,54,0.00,,,0.00,1.000000,,2013-02-02 18:21:00,
2013-02-02 08:31:00,51.0,35.0,-100.00,WSW,256,3.0,12.0,54,0.00,,,0.00,1.000000,,2013-02-02 18:31:00,
2013-02-02 08:52:00,61.0,43.0,-100.00,NNE,14,0.0,10.0,52,0.00,,,0.00,180.000000,,2013-02-02 18:52:00,
2013-02-02 09:02:00,61.0,43.0,-100.00,NNE,14,0.0,10.0,52,0.00,,,0.00,180.000000,,2013-02-02 19:02:00,
2013-02-02 09:11:00,61.0,43.0,-100.00,NNE,14,0.0,10.0,52,0.00,,,0.00,180.000000,,2013-02-02 19:11:00,
2013-02-02 09:21:00,61.0,43.0,-100.00,NNE,14,0.0,10.0,52,0.00,,,0.00,180.000000,,2013-02-02 19:21:00,
2013-02-02 09:31:00,61.0,43.0,-100.00,NNE,14,0.0,10.0,52,0.00,,,0.00,180.000000,,2013-02-02 19:31:00,
2013-02-02 09:52:00,64.0,34.0,-100.00,West,263,6.0,7.0,32,0.00,,,0.00,469.000000,,2013-02-02 19:52:00,
2013-02-02 10:01:00,64.0,34.0,-100.00,West,263,6.0,7.0,32,0.00,,,0.00,469.000000,,2013-02-02 20:01:00,
2013-02-02 10:11:00,64.0,34.0,-100.00,West,263,6.0,7.0,32,0.00,,,0.00,469.000000,,2013-02-02 20:11:00,
2013-02-02 10:21:00,64.0,34.0,-100.00,West,263,6.0,7.0,32,0.00,,,0.00,469.000000,,2013-02-02 20:21:00,
2013-02-02 10:32:00,64.0,34.0,-100.00,West,263,6.0,7.0,32,0.00,,,0.00,469.000000,,2013-02-02 20:32:00,
2013-02-02 10:52:00,68.0,2.0,-100.00,SE,142,12.0,25.0,7,0.00,,,0.00,708.000000,,2013-02-02 20:52:00,
2013-02-02 11:02:00,68.0,2.0,-100.00,SE,142,12.0,25.0,7,0.00,,,0.00,708.000000,,2013-02-02 21:02:00,
2013-02-02 11:11:00,68.0,2.0,-100.00,SE,142,12.0,25.0,7,0.00,,,0.00,708.000000,,2013-02-02 21:11:00,
2013-02-02 11:21:00,68.0,2.0,-100.00,SE,142,12.0,25.0,7,0.00,,,0.00,708.000000,,2013-02-02 21:21:00,
2013-02-02 11:32:00,68.0,2.0,-100.00,SE,142,12.0,25.0,7,0.00,,,0.00,708.000000,,2013-02-02 21:32:00,
2013-02-02 11:52:00,70.0,0.0,-100.00,SE,139,14.0,28.0,6,0.00,,,0.00,880.000000,,2013-02-02 21:52:00,
2013-02-02 12:02:00,70.0,0.0,-100.00,SE,139,14.0,28.0,6,0.00,,,0.00,880.000000,,2013-02-02 22:02:00,
2013-02-02 12:11:00,70.0,0.0,-100.00,SE,139,14.0,28.0,6,0.00,,,0.00,880.000000,,2013-02-02 22:11:00,
2013-02-02 12:21:00,70.0,0.0,-100.00,SE,139,14.0,28.0,6,0.00,,,0.00,880.000000,,2013-02-02 22:21:00,
2013-02-02 12:32:00,70.0,0.0,-100.00,SE,139,14.0,28.0,6,0.00,,,0.00,880.000000,,2013-02-02 22:32:00,
2013-02-02 12:52:00,70.0,-4.0,-100.00,SE,133,14.0,29.0,5,0.00,,,0.00,994.000000,,2013-02-02 22:52:00,
2013-02-02 13:01:00,70.0,-4.0,-100.00,SE,133,14.0,29.0,5,0.00,,,0.00,994.000000,,2013-02-02 23:01:00,
2013-02-02 13:11:00,70.0,-4.0,-100.00,SE,133,14.0,29.0,5,0.00,,,0.00,994.000000,,2013-02-02 23:11:00,
2013-02-02 13:21:00,70.0,-4.0,-100.00,SE,133,14.0,29.0,5,0.00,,,0.00,994.000000,,2013-02-02 23:21:00,
2013-02-02 13:32:00,70.0,-4.0,-100.00,SE,133,14.0,29.0,5,0.00,,,0.00,994.000000,,2013-02-02 23:32:00,
2013-02-02 13:52:00,72.0,-7.0,-100.00,SE,132,15.0,30.0,4,0.00,,,0.00,1030.000000,,2013-02-02 23:52:00,
2013-02-02 14:01:00,72.0,-7.0,-100.00,SE,132,15.0,30.0,4,0.00,,,0.00,1030.000000,,2013-02-03 00:01:00,
2013-02-02 14:11:00,72.0,-7.0,-100.00,SE,132,15.0,30.0,4,0.00,,,0.00,1030.000000,,2013-02-03 00:11:00,
2013-02-02 14:21:00,72.0,-7.0,-100.00,SE,132,15.0,30.0,4,0.00,,,0.00,1030.000000,,2013-02-03 00:21:00,
2013-02-02 14:31:00,72.0,-7.0,-100.00,SE,132,15.0,30.0,4,0.00,,,0.00,1030.000000,,2013-02-03 00:31:00,
2013-02-02 15:52:00,68.0,49.0,-100.00,WNW,287,4.0,23.0,50,0.00,,,0.00,849.000000,,2013-02-03 01:52:00,
2013-02-02 16:01:00,68.0,49.0,-100.00,WNW,287,4.0,23.0,50,0.00,,,0.00,849.000000,,2013-02-03 02:01:00,
2013-02-02 16:11:00,68.0,49.0,-100.00,WNW,287,4.0,23.0,50,0.00,,,0.00,849.000000,,2013-02-03 02:11:00,
2013-02-02 16:21:00,68.0,49.0,-100.00,WNW,287,4.0,23.0,50,0.00,,,0.00,849.000000,,2013-02-03 02:21:00,
2013-02-02 16:31:00,68.0,49.0,-100.00,WNW,287,4.0,23.0,50,0.00,,,0.00,849.000000,,2013-02-03 02:31:00,
2013-02-02 16:52:00,66.0,38.0,-100.00,West,267,5.0,15.0,36,0.00,,,0.00,655.000000,,2013-02-03 02:52:00,
2013-02-02 17:02:00,66.0,38.0,-100.00,West,267,5.0,15.0,36,0.00,,,0.00,655.000000,,2013-02-03 03:02:00,
2013-02-02 17:11:00,66.0,38.0,-100.00,West,267,5.0,15.0,36,0.00,,,0.00,655.000000,,2013-02-03 03:11:00,
2013-02-02 17:21:00,66.0,38.0,-100.00,West,267,5.0,15.0,36,0.00,,,0.00,655.000000,,2013-02-03 03:21:00,
2013-02-02 17:31:00,66.0,38.0,-100.00,West,267,5.0,15.0,36,0.00,,,0.00,655.000000,,2013-02-03 03:31:00,
2013-02-02 17:52:00,66.0,30.0,-100.00,WNW,296,5.0,16.0,26,0.00,,,0.00,418.000000,,2013-02-03 03:52:00,
2013-02-02 18:01:00,66.0,30.0,-100.00,WNW,296,5.0,16.0,26,0.00,,,0.00,418.000000,,2013-02-03 04:01:00,
2013-02-02 18:11:00,66.0,30.0,-100.00,WNW,296,5.0,16.0,26,0.00,,,0.00,418.000000,,2013-02-03 04:11:00,
2013-02-02 18:21:00,66.0,30.0,-100.00,WNW,296,5.0,16.0,26,0.00,,,0.00,418.000000,,2013-02-03 04:21:00,
2013-02-02 18:31:00,66.0,30.0,-100.00,WNW,296,5.0,16.0,26,0.00,,,0.00,418.000000,,2013-02-03 04:31:00,
2013-02-02 18:52:00,61.0,28.0,-100.00,South,172,5.0,18.0,28,0.00,,,0.00,109.000000,,2013-02-03 04:52:00,
2013-02-02 19:03:00,61.0,28.0,-100.00,South,172,5.0,18.0,28,0.00,,,0.00,109.000000,,2013-02-03 05:03:00,
2013-02-02 19:11:00,61.0,28.0,-100.00,South,172,5.0,18.0,28,0.00,,,0.00,109.000000,,2013-02-03 05:11:00,
2013-02-02 19:22:00,61.0,28.0,-100.00,South,172,5.0,18.0,28,0.00,,,0.00,109.000000,,2013-02-03 05:22:00,
2013-02-02 19:31:00,61.0,28.0,-100.00,South,172,5.0,18.0,28,0.00,,,0.00,109.000000,,2013-02-03 05:31:00,
2013-02-02 19:52:00,53.0,29.0,-100.00,NE,45,4.0,15.0,40,0.00,,,0.00,2.000000,,2013-02-03 05:52:00,
2013-02-02 20:02:00,53.0,29.0,-100.00,NE,45,4.0,15.0,40,0.00,,,0.00,2.000000,,2013-02-03 06:02:00,
2013-02-02 20:11:00,53.0,29.0,-100.00,NE,45,4.0,15.0,40,0.00,,,0.00,2.000000,,2013-02-03 06:11:00,
2013-02-02 20:21:00,53.0,29.0,-100.00,NE,45,4.0,15.0,40,0.00,,,0.00,2.000000,,2013-02-03 06:21:00,
2013-02-02 20:31:00,53.0,29.0,-100.00,NE,45,4.0,15.0,40,0.00,,,0.00,2.000000,,2013-02-03 06:31:00,
2013-02-02 20:52:00,52.0,41.0,-100.00,NE,39,3.0,11.0,66,0.00,,,0.00,0.000000,,2013-02-03 06:52:00,
2013-02-02 21:01:00,52.0,41.0,-100.00,NE,39,3.0,11.0,66,0.00,,,0.00,0.000000,,2013-02-03 07:01:00,
2013-02-02 21:11:00,52.0,41.0,-100.00,NE,39,3.0,11.0,66,0.00,,,0.00,0.000000,,2013-02-03 07:11:00,
2013-02-02 21:21:00,52.0,41.0,-100.00,NE,39,3.0,11.0,66,0.00,,,0.00,0.000000,,2013-02-03 07:21:00,
2013-02-02 21:31:00,52.0,41.0,-100.00,NE,39,3.0,11.0,66,0.00,,,0.00,0.000000,,2013-02-03 07:31:00,
2013-02-02 21:52:00,51.0,43.0,-100.00,ENE,57,3.0,7.0,74,0.00,,,0.00,0.000000,,2013-02-03 07:52:00,
2013-02-02 22:01:00,51.0,43.0,-100.00,ENE,57,3.0,7.0,74,0.00,,,0.00,0.000000,,2013-02-03 08:01:00,
2013-02-02 22:11:00,51.0,43.0,-100.00,ENE,57,3.0,7.0,74,0.00,,,0.00,0.000000,,2013-02-03 08:11:00,
2013-02-02 22:22:00,51.0,43.0,-100.00,ENE,57,3.0,7.0,74,0.00,,,0.00,0.000000,,2013-02-03 08:22:00,
2013-02-02 22:32:00,51.0,43.0,-100.00,ENE,57,3.0,7.0,74,0.00,,,0.00,0.000000,,2013-02-03 08:32:00,
2013-02-02 22:52:00,51.0,38.0,-100.00,NE,51,2.0,8.0,61,0.00,,,0.00,0.000000,,2013-02-03 08:52:00,
2013-02-02 23:02:00,51.0,38.0,-100.00,NE,51,2.0,8.0,61,0.00,,,0.00,0.000000,,2013-02-03 09:02:00,
2013-02-02 23:11:00,51.0,38.0,-100.00,NE,51,2.0,8.0,61,0.00,,,0.00,0.000000,,2013-02-03 09:11:00,
2013-02-02 23:21:00,51.0,38.0,-100.00,NE,51,2.0,8.0,61,0.00,,,0.00,0.000000,,2013-02-03 09:21:00,
2013-02-02 23:31:00,51.0,38.0,-100.00,NE,51,2.0,8.0,61,0.00,,,0.00,0.000000,,2013-02-03 09:31:00,
2013-02-02 23:52:00,52.0,38.0,-100.00,NE,43,1.0,9.0,58,0.00,,,0.00,0.000000,,2013-02-03 09:52:00,